Time;durP1;ratioP1;P1;durP2;ratioP2;P2;SDS_P1;SDS_P2;PMS_P1;PMS_P2;Temp;Humidity;BMP_temperature;BMP_pressure;BME280_temperature;BME280_humidity;BME280_pressure;Samples;Min_cycle;Max_cycle;Signal;HPM_P1;HPM_P2
2023/08/06 00:01:03;;;;;;;2.58;1.38;;;;;;;11.45;100.00;100486.38;4993027;28;20026;-94
2023/08/06 00:03:28;;;;;;;3.00;1.35;;;;;;;11.27;100.00;100485.75;4992038;28;20026;-93
2023/08/06 00:05:53;;;;;;;3.05;1.40;;;;;;;11.37;100.00;100484.25;4992446;28;20468;-94
2023/08/06 00:08:19;;;;;;;6.13;1.83;;;;;;;11.21;100.00;100484.31;4992748;28;20033;-94
2023/08/06 00:10:44;;;;;;;2.83;1.40;;;;;;;11.22;100.00;100485.19;4992763;28;20080;-93
2023/08/06 00:13:09;;;;;;;5.00;1.67;;;;;;;11.18;100.00;100488.84;4993343;28;20046;-94
2023/08/06 00:15:35;;;;;;;6.63;1.85;;;;;;;11.11;100.00;100489.22;4993075;28;20027;-93
2023/08/06 00:18:00;;;;;;;6.03;1.30;;;;;;;11.01;100.00;100501.00;4991753;28;20084;-93
2023/08/06 00:20:25;;;;;;;2.10;1.05;;;;;;;11.05;100.00;100499.91;4993205;28;20034;-93
2023/08/06 00:22:51;;;;;;;3.15;1.40;;;;;;;11.09;100.00;100497.97;4993236;28;20027;-93
2023/08/06 00:25:16;;;;;;;3.78;1.20;;;;;;;11.06;100.00;100498.16;4992631;28;20026;-93
2023/08/06 00:27:42;;;;;;;1.90;1.00;;;;;;;10.92;100.00;100506.69;4993075;28;20556;-94
2023/08/06 00:30:07;;;;;;;6.72;1.25;;;;;;;10.87;100.00;100495.81;4991935;28;20030;-94
2023/08/06 00:32:32;;;;;;;4.22;1.50;;;;;;;10.91;100.00;100507.63;4993261;28;20054;-93
2023/08/06 00:34:58;;;;;;;3.90;1.52;;;;;;;11.06;100.00;100511.91;4993115;28;20026;-93
2023/08/06 00:37:23;;;;;;;2.05;1.20;;;;;;;10.98;100.00;100516.69;4991809;28;20034;-93
2023/08/06 00:39:49;;;;;;;1.85;1.10;;;;;;;10.95;100.00;100519.44;4991682;28;20040;-93
2023/08/06 00:42:16;;;;;;;4.07;1.38;;;;;;;11.05;100.00;100520.56;4992820;28;20113;-94
2023/08/06 00:44:41;;;;;;;2.83;1.30;;;;;;;10.90;100.00;100526.63;4991633;28;20437;-93
2023/08/06 00:47:08;;;;;;;2.67;1.15;;;;;;;10.80;100.00;100530.63;4992767;28;20065;-93
2023/08/06 00:49:35;;;;;;;5.05;1.17;;;;;;;10.88;100.00;100526.72;4992726;28;20034;-93
2023/08/06 00:52:00;;;;;;;2.80;1.33;;;;;;;10.81;100.00;100527.97;4992765;28;20019;-93
2023/08/06 00:54:27;;;;;;;4.05;1.50;;;;;;;10.84;100.00;100529.56;4992746;28;20508;-93
2023/08/06 00:56:53;;;;;;;2.47;1.55;;;;;;;10.87;100.00;100534.53;4992763;28;20023;-93
2023/08/06 00:59:19;;;;;;;4.55;1.85;;;;;;;10.99;100.00;100533.00;4992571;28;20455;-93
2023/08/06 01:01:45;;;;;;;2.42;1.40;;;;;;;10.78;100.00;100537.63;4991600;28;20039;-93
2023/08/06 01:04:11;;;;;;;3.08;1.30;;;;;;;10.68;100.00;100522.69;4992479;28;20216;-94
2023/08/06 01:07:03;;;;;;;4.57;1.45;;;;;;;10.68;100.00;100527.84;4992620;28;20026;-93
2023/08/06 01:09:43;;;;;;;3.35;1.33;;;;;;;10.88;100.00;100518.97;4992894;28;20029;-93
2023/08/06 01:12:18;;;;;;;2.55;1.50;;;;;;;10.78;100.00;100522.16;4992479;28;20022;-93
2023/08/06 01:14:57;;;;;;;3.33;1.50;;;;;;;10.91;100.00;100529.13;4992644;28;20033;-93
2023/08/06 01:17:23;;;;;;;1.80;1.33;;;;;;;10.86;100.00;100525.97;4991182;28;20023;-92
2023/08/06 01:19:49;;;;;;;4.22;1.52;;;;;;;10.83;100.00;100525.31;4992885;28;20057;-94
2023/08/06 01:22:14;;;;;;;2.60;1.60;;;;;;;10.75;100.00;100530.91;4994657;28;20477;-94
2023/08/06 01:24:44;;;;;;;4.05;1.20;;;;;;;10.66;100.00;100534.84;4996490;28;20084;-94
2023/08/06 01:27:17;;;;;;;3.03;1.73;;;;;;;10.60;100.00;100539.50;4994776;28;20050;-93
2023/08/06 01:29:48;;;;;;;2.70;1.50;;;;;;;10.55;100.00;100536.34;4994829;28;20046;-93
2023/08/06 01:32:16;;;;;;;5.05;1.83;;;;;;;10.55;100.00;100537.19;4994937;28;20026;-93
2023/08/06 01:34:44;;;;;;;1.65;1.33;;;;;;;10.55;100.00;100550.09;4994610;28;20024;-94
2023/08/06 01:37:11;;;;;;;2.30;1.13;;;;;;;10.57;100.00;100547.44;4994745;28;20045;-94
2023/08/06 01:39:36;;;;;;;4.20;1.38;;;;;;;10.54;100.00;100556.19;4995728;28;20045;-93
2023/08/06 01:42:02;;;;;;;4.75;1.20;;;;;;;10.52;100.00;100568.34;4996083;28;20392;-93
2023/08/06 01:44:27;;;;;;;3.60;1.13;;;;;;;10.48;100.00;100561.66;4994495;28;20384;-93
2023/08/06 01:46:53;;;;;;;7.13;1.48;;;;;;;10.43;100.00;100574.00;4995769;28;20026;-93
2023/08/06 01:49:18;;;;;;;1.95;0.90;;;;;;;10.28;100.00;100561.00;4995381;28;20081;-94
2023/08/06 01:51:44;;;;;;;2.58;1.40;;;;;;;10.24;100.00;100567.22;4995435;28;20062;-93
2023/08/06 01:54:09;;;;;;;3.60;1.10;;;;;;;10.15;100.00;100565.13;4995705;28;20022;-94
2023/08/06 01:56:34;;;;;;;5.97;1.50;;;;;;;10.19;100.00;100571.81;4995646;28;20101;-93
2023/08/06 01:59:00;;;;;;;2.72;1.30;;;;;;;10.16;100.00;100576.28;4994196;28;20052;-93
2023/08/06 02:01:25;;;;;;;2.58;1.10;;;;;;;10.10;100.00;100572.28;4994953;28;20169;-93
2023/08/06 02:03:50;;;;;;;1.85;0.98;;;;;;;10.07;100.00;100567.28;4994694;28;20026;-93
2023/08/06 02:06:16;;;;;;;2.42;1.17;;;;;;;10.09;100.00;100578.34;4993790;28;20532;-93
2023/08/06 02:08:41;;;;;;;3.83;1.38;;;;;;;10.13;100.00;100579.84;4994691;28;20082;-93
2023/08/06 02:11:07;;;;;;;4.65;1.45;;;;;;;10.07;100.00;100578.44;4994767;28;20026;-93
2023/08/06 02:13:32;;;;;;;3.92;1.45;;;;;;;10.10;100.00;100581.78;4994724;28;20088;-92
2023/08/06 02:15:57;;;;;;;3.50;1.77;;;;;;;10.12;100.00;100574.78;4994831;28;20038;-94
2023/08/06 02:18:23;;;;;;;3.45;1.45;;;;;;;10.13;100.00;100577.28;4993303;28;20050;-94
2023/08/06 02:20:58;;;;;;;1.80;1.38;;;;;;;10.11;100.00;100573.94;4994520;28;20027;-94
2023/08/06 02:23:24;;;;;;;2.88;1.63;;;;;;;10.06;100.00;100583.69;4993254;28;20026;-93
2023/08/06 02:25:57;;;;;;;1.73;1.23;;;;;;;9.98;100.00;100578.09;4993291;28;20023;-93
2023/08/06 02:28:23;;;;;;;3.22;1.33;;;;;;;10.11;100.00;100586.84;4994542;28;20033;-94
2023/08/06 02:30:52;;;;;;;3.58;1.42;;;;;;;10.05;100.00;100584.59;4992869;28;20018;-93
2023/08/06 02:33:17;;;;;;;4.05;1.77;;;;;;;9.98;100.00;100580.69;4992245;28;20049;-93
2023/08/06 02:35:42;;;;;;;4.18;1.65;;;;;;;10.02;100.00;100584.75;4994421;28;20528;-93
2023/08/06 02:38:08;;;;;;;2.30;1.50;;;;;;;9.99;100.00;100584.91;4994136;28;20030;-92
2023/08/06 02:40:33;;;;;;;2.83;1.50;;;;;;;10.25;100.00;100586.94;4993001;28;20081;-93
2023/08/06 02:42:58;;;;;;;4.55;1.60;;;;;;;10.28;100.00;100591.97;4992981;28;20076;-93
2023/08/06 02:45:24;;;;;;;2.63;1.50;;;;;;;10.34;100.00;100589.97;4994117;28;20041;-94
2023/08/06 02:47:49;;;;;;;3.25;1.80;;;;;;;10.25;100.00;100586.94;4993117;28;20465;-93
2023/08/06 02:50:14;;;;;;;5.65;1.40;;;;;;;10.34;100.00;100587.38;4992573;28;20030;-93
2023/08/06 02:52:40;;;;;;;1.98;1.45;;;;;;;10.28;100.00;100584.22;4993985;28;20026;-93
2023/08/06 02:55:06;;;;;;;3.50;1.65;;;;;;;10.18;100.00;100589.94;4994018;28;20026;-93
2023/08/06 02:57:31;;;;;;;2.95;1.50;;;;;;;10.15;100.00;100598.66;4992775;28;20059;-94
2023/08/06 02:59:57;;;;;;;4.35;1.45;;;;;;;10.17;100.00;100596.84;4992606;28;20037;-93
2023/08/06 03:02:22;;;;;;;3.55;1.63;;;;;;;10.09;100.00;100596.41;4993695;28;20046;-93
2023/08/06 03:04:48;;;;;;;4.53;1.70;;;;;;;10.18;100.00;100595.09;4992218;28;20030;-94
2023/08/06 03:07:13;;;;;;;2.53;1.40;;;;;;;10.11;100.00;100594.56;4993631;28;20391;-93
2023/08/06 03:09:38;;;;;;;2.78;1.23;;;;;;;10.18;100.00;100600.25;4993864;28;20026;-93
2023/08/06 03:12:04;;;;;;;4.10;1.55;;;;;;;10.09;100.00;100593.81;4992366;28;20026;-93
2023/08/06 03:14:29;;;;;;;4.95;1.50;;;;;;;10.06;100.00;100596.56;5001647;28;20112;-93
2023/08/06 03:16:55;;;;;;;3.17;1.40;;;;;;;9.95;100.00;100593.72;5000530;28;20026;-93
2023/08/06 03:19:20;;;;;;;4.30;1.80;;;;;;;9.93;100.00;100595.56;4993158;28;20172;-94
2023/08/06 03:21:45;;;;;;;3.45;1.48;;;;;;;9.85;100.00;100591.63;4993538;28;20485;-94
2023/08/06 03:24:13;;;;;;;3.35;1.15;;;;;;;9.81;100.00;100595.28;4993352;28;20026;-93
2023/08/06 03:26:38;;;;;;;3.53;1.75;;;;;;;9.76;100.00;100599.00;4994115;28;20023;-93
2023/08/06 03:29:03;;;;;;;2.58;1.60;;;;;;;9.78;100.00;100598.03;4993804;28;20022;-94
2023/08/06 03:31:29;;;;;;;2.35;1.27;;;;;;;9.74;100.00;100593.09;4993964;28;20050;-94
2023/08/06 03:33:54;;;;;;;4.63;2.03;;;;;;;9.68;100.00;100591.69;4993756;28;20099;-93
2023/08/06 03:36:19;;;;;;;3.85;1.55;;;;;;;9.65;100.00;100578.94;4993778;28;20408;-93
2023/08/06 03:38:45;;;;;;;5.38;1.40;;;;;;;9.62;100.00;100586.81;4993855;28;20117;-93
2023/08/06 03:41:10;;;;;;;3.35;1.27;;;;;;;9.64;100.00;100592.75;4993996;28;20018;-94
2023/08/06 03:43:35;;;;;;;3.83;1.40;;;;;;;9.63;100.00;100593.63;4992248;28;20080;-93
2023/08/06 03:46:01;;;;;;;2.78;1.33;;;;;;;9.50;100.00;100582.28;4993455;28;20026;-94
2023/08/06 03:48:26;;;;;;;5.50;1.92;;;;;;;9.45;100.00;100589.44;4993645;28;20563;-94
2023/08/06 03:50:51;;;;;;;4.03;1.42;;;;;;;9.45;100.00;100590.25;4991943;28;20022;-93
2023/08/06 03:53:17;;;;;;;3.78;1.40;;;;;;;9.37;100.00;100593.22;4993421;28;20034;-93
2023/08/06 03:55:42;;;;;;;2.92;1.25;;;;;;;9.37;100.00;100600.13;4993454;28;20484;-93
2023/08/06 03:58:07;;;;;;;2.30;1.25;;;;;;;9.14;100.00;100591.75;4992994;28;20026;-94
2023/08/06 04:00:33;;;;;;;4.68;1.58;;;;;;;9.42;100.00;100591.25;4993297;28;20113;-93
2023/08/06 04:02:58;;;;;;;2.38;1.52;;;;;;;9.43;100.00;100597.22;4993312;28;20026;-94
2023/08/06 04:05:24;;;;;;;3.28;1.60;;;;;;;9.66;100.00;100603.81;4993206;28;20030;-93
2023/08/06 04:07:49;;;;;;;3.42;1.40;;;;;;;9.60;100.00;100604.94;4993163;28;20026;-93
2023/08/06 04:10:15;;;;;;;2.80;1.30;;;;;;;9.52;100.00;100606.25;4992040;28;20026;-93
2023/08/06 04:12:40;;;;;;;3.72;1.50;;;;;;;9.39;100.00;100612.00;4992094;28;20022;-93
2023/08/06 04:15:06;;;;;;;2.38;1.30;;;;;;;9.37;100.00;100611.25;4991868;28;20022;-94
2023/08/06 04:17:31;;;;;;;3.17;1.55;;;;;;;9.37;100.00;100613.81;4993272;28;20120;-93
2023/08/06 04:20:00;;;;;;;2.95;1.40;;;;;;;9.34;100.00;100621.72;4991937;28;20481;-94
2023/08/06 04:22:25;;;;;;;4.97;1.10;;;;;;;9.39;100.00;100616.34;4992983;28;20030;-93
2023/08/06 04:24:51;;;;;;;3.67;2.15;;;;;;;9.42;100.00;100634.22;4991785;28;20380;-93
2023/08/06 04:27:18;;;;;;;1.98;1.00;;;;;;;9.42;100.00;100632.47;4993062;28;20469;-93
2023/08/06 04:29:44;;;;;;;2.40;1.77;;;;;;;9.51;100.00;100625.16;4993164;28;20027;-93
2023/08/06 04:32:10;;;;;;;1.95;1.50;;;;;;;9.35;100.00;100625.13;4993118;28;20035;-93
2023/08/06 04:34:37;;;;;;;3.33;1.60;;;;;;;9.36;100.00;100619.91;4991824;28;20121;-93
2023/08/06 04:37:03;;;;;;;3.97;1.50;;;;;;;9.30;100.00;100633.06;4991095;28;20481;-94
2023/08/06 04:39:29;;;;;;;3.55;1.27;;;;;;;9.30;100.00;100632.25;4991371;28;20042;-93
2023/08/06 04:41:57;;;;;;;3.17;1.23;;;;;;;9.29;100.00;100623.69;4991569;28;20065;-93
2023/08/06 04:44:22;;;;;;;2.70;1.48;;;;;;;9.22;100.00;100624.91;4991526;28;20026;-93
2023/08/06 04:46:47;;;;;;;7.40;1.48;;;;;;;9.29;100.00;100628.84;4992915;28;20058;-94
2023/08/06 04:49:13;;;;;;;3.42;1.40;;;;;;;9.22;100.00;100624.91;4991661;28;20046;-94
2023/08/06 04:51:38;;;;;;;3.20;1.30;;;;;;;9.19;100.00;100625.88;4992893;28;20054;-93
2023/08/06 04:54:03;;;;;;;2.63;1.20;;;;;;;9.29;100.00;100634.00;4992968;28;20508;-92
2023/08/06 04:56:29;;;;;;;2.60;1.70;;;;;;;9.26;100.00;100626.38;4995919;28;20080;-93
2023/08/06 04:58:54;;;;;;;3.03;1.30;;;;;;;9.30;100.00;100630.50;4996350;28;20461;-93
2023/08/06 05:01:20;;;;;;;2.25;1.40;;;;;;;9.34;100.00;100623.44;4996586;28;20033;-93
2023/08/06 05:03:47;;;;;;;2.80;1.17;;;;;;;9.26;100.00;100628.97;4996692;28;20084;-93
2023/08/06 05:06:12;;;;;;;4.13;1.40;;;;;;;9.24;100.00;100637.66;4995383;28;20026;-94
2023/08/06 05:08:37;;;;;;;2.10;1.27;;;;;;;9.20;100.00;100631.84;4996481;28;20041;-93
2023/08/06 05:11:03;;;;;;;4.65;1.85;;;;;;;9.24;100.00;100638.50;4995083;28;20034;-93
2023/08/06 05:13:28;;;;;;;2.38;1.15;;;;;;;9.28;100.00;100634.88;4996481;28;20496;-93
2023/08/06 05:15:54;;;;;;;1.92;1.15;;;;;;;9.33;100.00;100648.38;4994545;28;20046;-93
2023/08/06 05:18:20;;;;;;;5.10;2.03;;;;;;;9.34;100.00;100654.34;4995043;28;20033;-92
2023/08/06 05:20:45;;;;;;;2.17;1.20;;;;;;;9.36;100.00;100655.97;4995047;28;20027;-93
2023/08/06 05:23:11;;;;;;;3.53;1.45;;;;;;;9.33;100.00;100648.38;4996232;28;20031;-93
2023/08/06 05:25:37;;;;;;;4.45;1.58;;;;;;;9.39;100.00;100657.56;4994737;28;20496;-94
2023/08/06 05:28:03;;;;;;;4.15;1.30;;;;;;;9.49;100.00;100656.19;4996154;28;20484;-93
2023/08/06 05:30:28;;;;;;;3.50;1.35;;;;;;;9.54;100.00;100650.81;4994696;28;20054;-94
2023/08/06 05:32:55;;;;;;;2.85;1.50;;;;;;;9.67;100.00;100664.72;4996129;28;20038;-93
2023/08/06 05:35:21;;;;;;;3.50;1.55;;;;;;;9.80;100.00;100662.38;4994781;28;20088;-94
2023/08/06 05:37:46;;;;;;;2.08;1.27;;;;;;;9.94;100.00;100669.41;4996280;28;20027;-93
2023/08/06 05:40:11;;;;;;;3.40;1.33;;;;;;;10.08;100.00;100669.53;4995780;28;20026;-94
2023/08/06 05:42:37;;;;;;;3.28;1.60;;;;;;;10.13;100.00;100672.72;4996137;28;20027;-95
2023/08/06 05:45:02;;;;;;;3.33;1.40;;;;;;;10.13;100.00;100674.47;4995928;28;20030;-94
2023/08/06 05:47:28;;;;;;;2.95;1.52;;;;;;;10.22;100.00;100669.66;4995926;28;20484;-94
2023/08/06 05:49:53;;;;;;;6.70;1.75;;;;;;;10.36;100.00;100674.09;4994332;28;20034;-92
2023/08/06 05:52:18;;;;;;;3.92;1.73;;;;;;;10.34;100.00;100677.69;4995821;28;20061;-94
2023/08/06 05:54:44;;;;;;;3.17;1.38;;;;;;;10.52;100.00;100681.88;4994178;28;20032;-94
2023/08/06 05:57:09;;;;;;;2.63;1.25;;;;;;;10.54;100.00;100685.22;4994212;28;20154;-93
2023/08/06 05:59:34;;;;;;;5.32;1.80;;;;;;;10.56;100.00;100683.41;4995359;28;20468;-94
2023/08/06 06:02:00;;;;;;;2.90;1.60;;;;;;;10.63;100.00;100674.41;4994344;28;20038;-94
2023/08/06 06:04:25;;;;;;;3.05;1.45;;;;;;;10.79;100.00;100689.06;4994287;28;20057;-93
2023/08/06 06:06:51;;;;;;;10.60;2.45;;;;;;;10.87;100.00;100692.88;4995436;28;20069;-93
2023/08/06 06:09:16;;;;;;;2.35;1.55;;;;;;;10.94;100.00;100698.53;4994256;28;20026;-93
2023/08/06 06:11:41;;;;;;;4.15;1.63;;;;;;;11.02;100.00;100708.44;4993783;28;20053;-93
2023/08/06 06:14:07;;;;;;;3.30;2.17;;;;;;;11.06;100.00;100708.19;4993376;28;20441;-94
2023/08/06 06:16:32;;;;;;;3.47;1.80;;;;;;;11.19;100.00;100715.28;4994761;28;20389;-94
2023/08/06 06:18:58;;;;;;;5.50;1.80;;;;;;;11.27;100.00;100720.88;4993459;28;20037;-94
2023/08/06 06:21:24;;;;;;;4.95;1.85;;;;;;;11.37;100.00;100705.69;4993393;28;20476;-94
2023/08/06 06:23:51;;;;;;;13.02;2.22;;;;;;;11.46;100.00;100713.75;4993406;28;20026;-94
2023/08/06 06:26:17;;;;;;;4.90;1.52;;;;;;;11.56;100.00;100717.47;4993504;28;20129;-94
2023/08/06 06:28:42;;;;;;;4.90;2.00;;;;;;;11.63;100.00;100717.09;4993319;28;20116;-95
2023/08/06 06:31:07;;;;;;;8.90;2.33;;;;;;;11.75;100.00;100727.59;4994453;28;20473;-95
2023/08/06 06:33:33;;;;;;;13.00;2.58;;;;;;;11.84;100.00;100726.22;4993220;28;20488;-94
2023/08/06 06:35:58;;;;;;;4.15;1.85;;;;;;;11.91;100.00;100731.91;4993252;28;20018;-94
2023/08/06 06:38:23;;;;;;;4.90;1.77;;;;;;;12.29;100.00;100737.41;4993097;28;20022;-95
2023/08/06 06:40:56;;;;;;;5.47;1.85;;;;;;;14.89;100.00;100738.69;4992937;28;20022;-94
2023/08/06 06:43:22;;;;;;;7.32;1.75;;;;;;;18.83;72.99;100747.78;4994342;28;20034;-94
2023/08/06 06:45:55;;;;;;;4.97;1.45;;;;;;;21.14;60.58;100736.91;4993141;28;20089;-94
2023/08/06 06:48:21;;;;;;;4.40;1.70;;;;;;;22.53;54.23;100739.72;4992854;28;20035;-94
2023/08/06 06:50:49;;;;;;;5.03;1.20;;;;;;;21.68;54.17;100754.44;4994065;28;20019;-94
2023/08/06 06:53:14;;;;;;;4.82;1.27;;;;;;;21.36;54.94;100750.53;4992650;28;20441;-95
2023/08/06 06:55:40;;;;;;;5.43;1.55;;;;;;;22.96;51.96;100751.00;4993915;28;20065;-94
2023/08/06 06:58:05;;;;;;;3.60;1.40;;;;;;;24.75;46.41;100754.47;4993958;28;20027;-95
2023/08/06 07:00:30;;;;;;;2.88;1.05;;;;;;;21.12;54.28;100757.22;4993865;28;20469;-94
2023/08/06 07:02:56;;;;;;;4.03;1.30;;;;;;;20.04;60.15;100765.69;4993996;28;20412;-94
2023/08/06 07:05:21;;;;;;;3.25;1.20;;;;;;;18.68;66.79;100766.41;4993878;28;20065;-94
2023/08/06 07:07:47;;;;;;;2.22;0.95;;;;;;;18.22;68.55;100767.72;4993815;28;20026;-95
2023/08/06 07:10:12;;;;;;;6.80;1.30;;;;;;;18.13;67.27;100758.03;4993664;28;20034;-95
2023/08/06 07:12:37;;;;;;;3.85;1.00;;;;;;;18.58;67.20;100762.91;4993863;28;20036;-94
2023/08/06 07:15:06;;;;;;;5.53;1.50;;;;;;;17.64;68.25;100756.88;4993529;28;20365;-94
2023/08/06 07:17:31;;;;;;;4.57;1.10;;;;;;;16.23;76.35;100764.44;4993121;28;20026;-95
2023/08/06 07:19:56;;;;;;;3.47;0.98;;;;;;;16.04;80.54;100761.56;4992925;28;20029;-94
2023/08/06 07:22:22;;;;;;;3.53;1.52;;;;;;;15.84;83.65;100757.84;4994127;28;20030;-94
2023/08/06 07:24:47;;;;;;;6.72;1.08;;;;;;;15.59;83.64;100759.63;4992355;28;20018;-95
2023/08/06 07:27:13;;;;;;;4.75;1.20;;;;;;;15.56;84.77;100757.25;4993726;28;20472;-95
2023/08/06 07:29:38;;;;;;;4.00;1.25;;;;;;;16.32;81.96;100762.09;4993277;28;20018;-95
2023/08/06 07:32:04;;;;;;;5.47;1.20;;;;;;;17.04;76.64;100749.47;4993394;28;20026;-94
2023/08/06 07:34:29;;;;;;;4.00;1.10;;;;;;;17.62;74.11;100758.78;4992068;28;20500;-94
2023/08/06 07:36:54;;;;;;;2.05;0.90;;;;;;;20.53;63.68;100754.09;4992093;28;20026;-94
2023/08/06 07:39:20;;;;;;;3.35;0.80;;;;;;;21.89;56.42;100756.75;4993181;28;20105;-94
2023/08/06 07:41:46;;;;;;;4.45;1.08;;;;;;;20.90;58.04;100761.09;4991835;28;20034;-96
2023/08/06 07:44:11;;;;;;;3.95;0.82;;;;;;;20.39;62.35;100765.06;4991993;28;20018;-95
2023/08/06 07:46:38;;;;;;;3.92;1.10;;;;;;;21.01;59.04;100751.38;4991837;28;20025;-94
2023/08/06 07:49:03;;;;;;;4.45;0.77;;;;;;;21.63;56.18;100762.81;4991856;28;20378;-94
2023/08/06 07:51:28;;;;;;;3.45;1.13;;;;;;;23.20;51.40;100747.63;4991757;28;20029;-95
2023/08/06 07:53:54;;;;;;;1.83;0.50;;;;;;;22.59;53.43;100754.03;4991754;28;20483;-95
2023/08/06 07:56:19;;;;;;;2.42;0.68;;;;;;;21.17;55.85;100752.38;4992747;28;20022;-94
2023/08/06 07:58:44;;;;;;;2.92;0.50;;;;;;;22.06;54.32;100750.59;4992942;28;20026;-94
2023/08/06 08:01:10;;;;;;;1.88;0.60;;;;;;;22.92;53.09;100754.13;4991613;28;20461;-94
2023/08/06 08:03:35;;;;;;;2.22;0.60;;;;;;;21.57;55.15;100756.34;4993027;28;20369;-94
2023/08/06 08:06:00;;;;;;;7.40;1.95;;;;;;;21.87;55.06;100764.78;4993471;28;20030;-95
2023/08/06 08:08:26;;;;;;;1.00;0.40;;;;;;;22.82;53.33;100754.25;4991936;28;20026;-94
2023/08/06 08:10:51;;;;;;;4.80;0.95;;;;;;;23.02;51.93;100757.47;4992442;28;20026;-96
2023/08/06 08:13:17;;;;;;;1.67;0.50;;;;;;;23.52;51.44;100755.72;4992743;28;20492;-96
2023/08/06 08:15:42;;;;;;;1.38;0.30;;;;;;;24.35;48.89;100764.16;4991749;28;20023;-95
2023/08/06 08:18:07;;;;;;;2.70;0.82;;;;;;;23.87;49.35;100765.94;4991664;28;20058;-96
2023/08/06 08:20:35;;;;;;;2.05;0.52;;;;;;;23.91;47.83;100771.69;4991295;28;20081;-96
2023/08/06 08:23:00;;;;;;;2.55;0.50;;;;;;;22.82;50.68;100762.16;4991764;28;20118;-96
2023/08/06 08:25:26;;;;;;;2.00;0.47;;;;;;;22.70;51.52;100758.16;4991715;28;20612;-95
2023/08/06 08:27:52;;;;;;;5.15;0.70;;;;;;;22.69;50.77;100759.97;4992108;28;20018;-95
2023/08/06 08:30:17;;;;;;;1.98;0.40;;;;;;;22.17;51.66;100755.63;4993357;28;20121;-95
2023/08/06 08:32:43;;;;;;;3.30;1.17;;;;;;;22.58;51.02;100750.56;4996215;28;20410;-95
2023/08/06 08:35:08;;;;;;;1.85;0.30;;;;;;;22.40;51.14;100757.72;4997696;28;20109;-96
2023/08/06 08:37:34;;;;;;;1.05;0.30;;;;;;;22.68;49.70;100758.34;4997624;28;20384;-96
2023/08/06 08:40:00;;;;;;;1.25;0.35;;;;;;;23.10;49.26;100759.31;4995826;28;20031;-95
2023/08/06 08:42:26;;;;;;;1.20;0.40;;;;;;;23.93;47.03;100759.97;4996159;28;20023;-96
2023/08/06 08:44:53;;;;;;;1.75;0.73;;;;;;;22.95;49.18;100754.63;4997326;28;20547;-96
2023/08/06 08:47:19;;;;;;;1.95;0.35;;;;;;;22.84;49.31;100762.81;4997270;28;20023;-95
2023/08/06 08:49:46;;;;;;;2.17;0.30;;;;;;;22.30;49.29;100754.41;4995835;28;20030;-96
2023/08/06 08:52:14;;;;;;;0.38;0.15;;;;;;;23.31;48.26;100757.00;4996836;28;20034;-96
2023/08/06 08:54:40;;;;;;;1.70;0.17;;;;;;;23.37;49.03;100761.63;4995619;28;20023;-96
2023/08/06 08:57:05;;;;;;;1.98;0.28;;;;;;;22.20;50.20;100760.59;4996788;28;20042;-95
2023/08/06 08:59:33;;;;;;;2.58;0.30;;;;;;;22.76;49.16;100754.91;4996376;28;20062;-95
2023/08/06 09:02:00;;;;;;;1.17;0.30;;;;;;;22.21;49.87;100761.41;4995424;28;20500;-95
2023/08/06 09:04:31;;;;;;;0.82;0.25;;;;;;;22.45;49.75;100768.59;4995095;28;20062;-95
2023/08/06 09:06:58;;;;;;;1.70;0.40;;;;;;;22.00;50.23;100778.34;4995230;28;20034;-96
2023/08/06 09:09:31;;;;;;;3.38;0.40;;;;;;;21.15;51.20;100771.88;4995160;28;20019;-96
2023/08/06 09:12:01;;;;;;;0.73;0.20;;;;;;;20.55;52.49;100779.34;4995563;28;20096;-95
2023/08/06 09:14:27;;;;;;;3.53;0.25;;;;;;;21.00;52.53;100775.97;4995542;28;20038;-95
2023/08/06 09:16:53;;;;;;;1.15;0.32;;;;;;;21.01;52.92;100780.25;4996456;28;20026;-94
2023/08/06 09:19:18;;;;;;;1.75;0.38;;;;;;;20.47;53.77;100786.13;4995945;28;20037;-95
2023/08/06 09:21:48;;;;;;;2.10;0.82;;;;;;;20.02;55.28;100786.81;4995378;28;20029;-94
2023/08/06 09:24:14;;;;;;;0.68;0.30;;;;;;;19.66;57.66;100783.94;4995228;28;20023;-94
2023/08/06 09:26:40;;;;;;;0.90;0.30;;;;;;;19.32;62.82;100787.91;4996133;28;20489;-95
2023/08/06 09:29:07;;;;;;;1.35;0.40;;;;;;;20.07;61.29;100804.75;4995364;28;20468;-95
2023/08/06 09:31:53;;;;;;;1.02;0.32;;;;;;;20.15;60.59;100796.16;4995116;28;20089;-95
2023/08/06 09:34:23;;;;;;;0.68;0.20;;;;;;;19.42;63.99;100794.81;4994131;28;20035;-94
2023/08/06 09:36:51;;;;;;;2.60;0.80;;;;;;;19.76;63.88;100796.22;4995869;28;20101;-94
2023/08/06 09:39:18;;;;;;;0.85;0.38;;;;;;;20.22;62.27;100802.50;4994499;28;20042;-96
2023/08/06 09:41:48;;;;;;;0.82;0.17;;;;;;;20.75;61.36;100788.78;4994271;28;20285;-94
2023/08/06 09:44:21;;;;;;;0.63;0.20;;;;;;;20.63;59.54;100796.03;4994409;28;20092;-94
2023/08/06 09:47:00;;;;;;;0.73;0.17;;;;;;;20.51;59.76;100794.53;4995719;28;20080;-94
2023/08/06 09:49:28;;;;;;;1.35;0.40;;;;;;;19.91;62.67;100807.94;4995779;28;20057;-94
2023/08/06 09:51:58;;;;;;;4.05;0.75;;;;;;;19.49;64.72;100818.66;4995543;28;20073;-94
2023/08/06 09:54:24;;;;;;;0.63;0.25;;;;;;;19.56;66.75;100816.31;4994030;28;20057;-94
2023/08/06 09:56:50;;;;;;;0.65;0.30;;;;;;;19.73;66.84;100812.19;4995727;28;20077;-94
2023/08/06 09:59:17;;;;;;;1.25;0.32;;;;;;;19.98;67.36;100816.88;4994199;28;20494;-94
2023/08/06 10:01:43;;;;;;;2.78;0.60;;;;;;;20.60;66.17;100812.03;4994336;28;20030;-95
2023/08/06 10:04:10;;;;;;;3.13;0.38;;;;;;;21.35;63.79;100806.69;4993936;28;20381;-95
2023/08/06 10:06:36;;;;;;;1.00;0.40;;;;;;;21.59;63.90;100812.19;4994020;28;20105;-94
2023/08/06 10:09:02;;;;;;;4.30;0.88;;;;;;;20.95;65.15;100813.16;4995172;28;20034;-95
2023/08/06 10:11:29;;;;;;;1.80;0.20;;;;;;;21.37;63.20;100812.59;4994637;28;20396;-95
2023/08/06 10:14:02;;;;;;;1.02;0.17;;;;;;;21.94;64.21;100804.41;4994062;28;20106;-95
2023/08/06 10:16:28;;;;;;;2.90;0.43;;;;;;;22.36;61.42;100803.72;4994847;28;20480;-95
2023/08/06 10:18:54;;;;;;;0.55;0.30;;;;;;;21.87;63.14;100812.06;4995495;28;20104;-95
2023/08/06 10:21:21;;;;;;;0.88;0.15;;;;;;;21.84;58.75;100811.56;4995354;28;20465;-96
2023/08/06 10:23:54;;;;;;;0.70;0.25;;;;;;;22.13;58.32;100809.47;4994376;28;20027;-96
2023/08/06 10:26:20;;;;;;;0.95;0.05;;;;;;;22.59;56.04;100812.72;4995208;28;20380;-95
2023/08/06 10:28:45;;;;;;;0.57;0.17;;;;;;;22.91;55.33;100805.94;4995236;28;20106;-96
2023/08/06 10:31:10;;;;;;;1.10;0.32;;;;;;;22.84;54.53;100812.81;4995171;28;20465;-96
2023/08/06 10:33:47;;;;;;;3.50;0.32;;;;;;;23.07;53.81;100813.94;4993981;28;20081;-95
2023/08/06 10:36:13;;;;;;;1.40;0.10;;;;;;;23.46;51.89;100815.97;4993837;28;20124;-93
2023/08/06 10:38:49;;;;;;;0.10;0.10;;;;;;;23.38;51.97;100813.31;4993617;28;20034;-95
2023/08/06 10:41:18;;;;;;;1.02;0.20;;;;;;;23.72;51.50;100804.44;4993477;28;20023;-93
2023/08/06 10:43:47;;;;;;;1.17;0.20;;;;;;;23.75;50.33;100804.19;4993561;28;20057;-93
2023/08/06 10:46:23;;;;;;;3.20;0.30;;;;;;;23.60;50.13;100813.66;4993749;28;20172;-93
2023/08/06 10:48:48;;;;;;;0.43;0.20;;;;;;;24.23;49.33;100813.00;4993377;28;20074;-93
2023/08/06 10:51:17;;;;;;;0.32;0.17;;;;;;;23.53;50.43;100810.03;4994458;28;20102;-94
2023/08/06 10:53:47;;;;;;;0.43;0.20;;;;;;;23.42;49.85;100808.56;4993706;28;20477;-95
2023/08/06 10:56:17;;;;;;;0.80;0.20;;;;;;;22.84;51.17;100810.19;4993455;28;20042;-93
2023/08/06 10:58:44;;;;;;;0.95;0.17;;;;;;;22.42;51.46;100805.75;4994655;28;20010;-95
2023/08/06 11:01:10;;;;;;;1.27;0.30;;;;;;;22.16;51.68;100800.44;4994227;28;20023;-95
2023/08/06 11:03:36;;;;;;;1.55;0.52;;;;;;;21.80;52.96;100804.00;4994349;28;20022;-96
2023/08/06 11:06:02;;;;;;;2.05;0.40;;;;;;;22.28;51.49;100804.50;4993950;28;20045;-96
2023/08/06 11:08:33;;;;;;;1.30;0.30;;;;;;;22.89;51.47;100796.56;4994752;28;20114;-94
2023/08/06 11:11:13;;;;;;;3.03;0.40;;;;;;;22.48;50.31;100804.28;4994146;28;20545;-95
2023/08/06 11:13:48;;;;;;;1.70;0.20;;;;;;;23.08;50.90;100802.41;4994439;28;20033;-96
2023/08/06 11:16:18;;;;;;;0.52;0.20;;;;;;;23.63;50.67;100800.16;4992986;28;20034;-96
2023/08/06 11:18:44;;;;;;;0.98;0.30;;;;;;;23.05;48.88;100807.19;4994135;28;20038;-96